sensor_id;sensor_type;location;lat;lon;timestamp;P1;durP1;ratioP1;P2;durP2;ratioP2
32633;SDS011;19043;51.012;5.648;2022-08-01T00:00:31;12.52;;;4.88;;
32633;SDS011;19043;51.012;5.648;2022-08-01T00:02:56;7.75;;;5.32;;
32633;SDS011;19043;51.012;5.648;2022-08-01T00:05:22;10.77;;;5.63;;
32633;SDS011;19043;51.012;5.648;2022-08-01T00:07:47;10.25;;;5.20;;
32633;SDS011;19043;51.012;5.648;2022-08-01T00:10:14;5.80;;;4.72;;
32633;SDS011;19043;51.012;5.648;2022-08-01T00:12:40;5.68;;;4.63;;
32633;SDS011;19043;51.012;5.648;2022-08-01T00:15:06;10.48;;;4.68;;
32633;SDS011;19043;51.012;5.648;2022-08-01T00:17:34;6.07;;;4.88;;
32633;SDS011;19043;51.012;5.648;2022-08-01T00:19:59;7.65;;;4.60;;
32633;SDS011;19043;51.012;5.648;2022-08-01T00:22:25;6.63;;;4.80;;
32633;SDS011;19043;51.012;5.648;2022-08-01T00:24:50;6.28;;;5.00;;
32633;SDS011;19043;51.012;5.648;2022-08-01T00:27:16;7.43;;;4.57;;
32633;SDS011;19043;51.012;5.648;2022-08-01T00:29:41;7.65;;;4.72;;
32633;SDS011;19043;51.012;5.648;2022-08-01T00:32:07;8.25;;;5.22;;
32633;SDS011;19043;51.012;5.648;2022-08-01T00:34:32;6.05;;;4.75;;
32633;SDS011;19043;51.012;5.648;2022-08-01T00:36:58;7.00;;;3.72;;
32633;SDS011;19043;51.012;5.648;2022-08-01T00:39:23;6.95;;;4.18;;
32633;SDS011;19043;51.012;5.648;2022-08-01T00:41:48;9.75;;;5.13;;
32633;SDS011;19043;51.012;5.648;2022-08-01T00:44:14;5.32;;;4.10;;
32633;SDS011;19043;51.012;5.648;2022-08-01T00:46:39;5.80;;;4.28;;
32633;SDS011;19043;51.012;5.648;2022-08-01T00:49:05;7.40;;;4.85;;
32633;SDS011;19043;51.012;5.648;2022-08-01T00:51:30;7.35;;;4.00;;
32633;SDS011;19043;51.012;5.648;2022-08-01T00:53:55;8.18;;;4.63;;
32633;SDS011;19043;51.012;5.648;2022-08-01T00:56:21;5.47;;;4.32;;
32633;SDS011;19043;51.012;5.648;2022-08-01T00:58:49;5.50;;;4.47;;
32633;SDS011;19043;51.012;5.648;2022-08-01T01:01:14;6.15;;;4.35;;
32633;SDS011;19043;51.012;5.648;2022-08-01T01:03:41;6.05;;;4.53;;
32633;SDS011;19043;51.012;5.648;2022-08-01T01:11:31;5.85;;;4.60;;
32633;SDS011;19043;51.012;5.648;2022-08-01T01:14:07;7.30;;;4.90;;
32633;SDS011;19043;51.012;5.648;2022-08-01T01:16:35;6.60;;;4.45;;
32633;SDS011;19043;51.012;5.648;2022-08-01T01:19:02;6.75;;;4.03;;
32633;SDS011;19043;51.012;5.648;2022-08-01T01:29:21;8.88;;;3.40;;
32633;SDS011;19043;51.012;5.648;2022-08-01T01:34:20;6.00;;;3.85;;
32633;SDS011;19043;51.012;5.648;2022-08-01T01:36:47;9.63;;;4.40;;
32633;SDS011;19043;51.012;5.648;2022-08-01T01:39:13;5.68;;;3.80;;
32633;SDS011;19043;51.012;5.648;2022-08-01T01:41:39;6.30;;;3.67;;
32633;SDS011;19043;51.012;5.648;2022-08-01T01:44:05;5.40;;;3.70;;
32633;SDS011;19043;51.012;5.648;2022-08-01T01:46:31;7.45;;;4.38;;
32633;SDS011;19043;51.012;5.648;2022-08-01T01:48:57;8.55;;;3.78;;
32633;SDS011;19043;51.012;5.648;2022-08-01T01:51:24;4.82;;;3.67;;
32633;SDS011;19043;51.012;5.648;2022-08-01T01:53:51;7.53;;;3.80;;
32633;SDS011;19043;51.012;5.648;2022-08-01T01:56:18;6.95;;;4.18;;
32633;SDS011;19043;51.012;5.648;2022-08-01T01:58:44;7.05;;;3.38;;
32633;SDS011;19043;51.012;5.648;2022-08-01T02:01:10;5.55;;;4.40;;
32633;SDS011;19043;51.012;5.648;2022-08-01T02:03:36;6.30;;;3.78;;
32633;SDS011;19043;51.012;5.648;2022-08-01T02:06:02;8.25;;;4.38;;
32633;SDS011;19043;51.012;5.648;2022-08-01T02:08:29;6.22;;;4.00;;
32633;SDS011;19043;51.012;5.648;2022-08-01T02:10:55;10.82;;;4.55;;
32633;SDS011;19043;51.012;5.648;2022-08-01T02:13:39;5.88;;;4.03;;
32633;SDS011;19043;51.012;5.648;2022-08-01T02:16:05;8.90;;;4.88;;
32633;SDS011;19043;51.012;5.648;2022-08-01T02:18:31;6.20;;;3.88;;
32633;SDS011;19043;51.012;5.648;2022-08-01T02:20:57;6.53;;;4.60;;
32633;SDS011;19043;51.012;5.648;2022-08-01T02:23:24;7.50;;;4.25;;
32633;SDS011;19043;51.012;5.648;2022-08-01T02:25:53;8.90;;;4.38;;
32633;SDS011;19043;51.012;5.648;2022-08-01T02:28:22;9.82;;;4.55;;
32633;SDS011;19043;51.012;5.648;2022-08-01T02:30:53;7.50;;;4.82;;
32633;SDS011;19043;51.012;5.648;2022-08-01T02:33:22;5.47;;;4.00;;
32633;SDS011;19043;51.012;5.648;2022-08-01T02:35:52;6.00;;;4.35;;
32633;SDS011;19043;51.012;5.648;2022-08-01T02:38:22;6.28;;;4.78;;
32633;SDS011;19043;51.012;5.648;2022-08-01T02:40:50;9.52;;;5.60;;
32633;SDS011;19043;51.012;5.648;2022-08-01T02:43:18;6.50;;;4.90;;
32633;SDS011;19043;51.012;5.648;2022-08-01T02:45:47;10.00;;;5.07;;
32633;SDS011;19043;51.012;5.648;2022-08-01T02:48:17;11.52;;;4.85;;
32633;SDS011;19043;51.012;5.648;2022-08-01T02:50:44;8.02;;;4.82;;
32633;SDS011;19043;51.012;5.648;2022-08-01T02:53:12;9.23;;;5.47;;
32633;SDS011;19043;51.012;5.648;2022-08-01T02:55:38;12.57;;;4.78;;
32633;SDS011;19043;51.012;5.648;2022-08-01T02:58:04;7.15;;;4.80;;
32633;SDS011;19043;51.012;5.648;2022-08-01T03:00:31;7.55;;;5.13;;
32633;SDS011;19043;51.012;5.648;2022-08-01T03:02:58;8.02;;;5.10;;
32633;SDS011;19043;51.012;5.648;2022-08-01T03:05:25;7.47;;;5.10;;
32633;SDS011;19043;51.012;5.648;2022-08-01T03:07:51;8.75;;;5.75;;
32633;SDS011;19043;51.012;5.648;2022-08-01T03:10:19;10.15;;;5.38;;
32633;SDS011;19043;51.012;5.648;2022-08-01T03:12:45;8.18;;;4.97;;
32633;SDS011;19043;51.012;5.648;2022-08-01T03:15:11;9.82;;;5.28;;
32633;SDS011;19043;51.012;5.648;2022-08-01T03:17:37;6.03;;;4.95;;
32633;SDS011;19043;51.012;5.648;2022-08-01T03:20:06;8.23;;;5.45;;
32633;SDS011;19043;51.012;5.648;2022-08-01T03:22:33;6.57;;;5.43;;
32633;SDS011;19043;51.012;5.648;2022-08-01T03:24:59;7.82;;;5.90;;
32633;SDS011;19043;51.012;5.648;2022-08-01T03:27:26;8.73;;;5.35;;
32633;SDS011;19043;51.012;5.648;2022-08-01T03:29:54;10.13;;;6.32;;
32633;SDS011;19043;51.012;5.648;2022-08-01T03:32:20;9.05;;;5.45;;
32633;SDS011;19043;51.012;5.648;2022-08-01T03:34:46;7.97;;;5.07;;
32633;SDS011;19043;51.012;5.648;2022-08-01T03:37:14;10.65;;;6.15;;
32633;SDS011;19043;51.012;5.648;2022-08-01T03:39:47;15.15;;;6.50;;
32633;SDS011;19043;51.012;5.648;2022-08-01T03:42:17;11.02;;;5.78;;
32633;SDS011;19043;51.012;5.648;2022-08-01T03:44:47;13.02;;;6.95;;
32633;SDS011;19043;51.012;5.648;2022-08-01T03:47:15;7.38;;;5.68;;
32633;SDS011;19043;51.012;5.648;2022-08-01T03:49:42;10.35;;;5.93;;
32633;SDS011;19043;51.012;5.648;2022-08-01T03:52:08;12.43;;;7.03;;
32633;SDS011;19043;51.012;5.648;2022-08-01T03:54:35;13.57;;;8.35;;
32633;SDS011;19043;51.012;5.648;2022-08-01T03:57:02;9.27;;;7.05;;
32633;SDS011;19043;51.012;5.648;2022-08-01T03:59:29;12.00;;;8.02;;
32633;SDS011;19043;51.012;5.648;2022-08-01T04:01:55;12.48;;;9.23;;
32633;SDS011;19043;51.012;5.648;2022-08-01T04:04:20;15.88;;;8.52;;
32633;SDS011;19043;51.012;5.648;2022-08-01T04:06:46;13.05;;;9.23;;
32633;SDS011;19043;51.012;5.648;2022-08-01T04:09:15;10.52;;;7.53;;
32633;SDS011;19043;51.012;5.648;2022-08-01T04:11:41;11.38;;;7.90;;
32633;SDS011;19043;51.012;5.648;2022-08-01T04:14:06;11.75;;;8.55;;
32633;SDS011;19043;51.012;5.648;2022-08-01T04:16:32;12.82;;;9.50;;
32633;SDS011;19043;51.012;5.648;2022-08-01T04:18:57;11.50;;;8.60;;
32633;SDS011;19043;51.012;5.648;2022-08-01T04:21:24;15.98;;;10.25;;
32633;SDS011;19043;51.012;5.648;2022-08-01T04:23:52;18.35;;;10.65;;
32633;SDS011;19043;51.012;5.648;2022-08-01T04:26:19;23.40;;;11.60;;
32633;SDS011;19043;51.012;5.648;2022-08-01T04:28:45;15.18;;;11.35;;
32633;SDS011;19043;51.012;5.648;2022-08-01T04:31:11;15.90;;;11.32;;
32633;SDS011;19043;51.012;5.648;2022-08-01T04:33:42;15.25;;;11.60;;
32633;SDS011;19043;51.012;5.648;2022-08-01T04:36:10;13.52;;;11.35;;
32633;SDS011;19043;51.012;5.648;2022-08-01T04:38:37;20.55;;;14.18;;
32633;SDS011;19043;51.012;5.648;2022-08-01T04:41:04;13.93;;;11.77;;
32633;SDS011;19043;51.012;5.648;2022-08-01T04:43:31;19.98;;;13.35;;
32633;SDS011;19043;51.012;5.648;2022-08-01T04:45:57;15.75;;;12.57;;
32633;SDS011;19043;51.012;5.648;2022-08-01T04:48:23;14.88;;;12.32;;
32633;SDS011;19043;51.012;5.648;2022-08-01T04:50:50;16.67;;;14.80;;
32633;SDS011;19043;51.012;5.648;2022-08-01T04:53:15;20.83;;;14.50;;
32633;SDS011;19043;51.012;5.648;2022-08-01T04:55:45;19.88;;;14.65;;
32633;SDS011;19043;51.012;5.648;2022-08-01T04:58:11;21.65;;;13.27;;
32633;SDS011;19043;51.012;5.648;2022-08-01T05:00:37;23.40;;;16.00;;
32633;SDS011;19043;51.012;5.648;2022-08-01T05:03:02;18.48;;;13.32;;
32633;SDS011;19043;51.012;5.648;2022-08-01T05:05:28;18.70;;;13.68;;
32633;SDS011;19043;51.012;5.648;2022-08-01T05:07:53;22.40;;;14.25;;
32633;SDS011;19043;51.012;5.648;2022-08-01T05:10:18;21.90;;;13.88;;
32633;SDS011;19043;51.012;5.648;2022-08-01T05:12:44;16.75;;;13.20;;
32633;SDS011;19043;51.012;5.648;2022-08-01T05:15:11;23.40;;;14.02;;
32633;SDS011;19043;51.012;5.648;2022-08-01T05:17:36;20.20;;;14.75;;
32633;SDS011;19043;51.012;5.648;2022-08-01T05:20:02;16.83;;;14.15;;
32633;SDS011;19043;51.012;5.648;2022-08-01T05:22:28;21.75;;;16.90;;
32633;SDS011;19043;51.012;5.648;2022-08-01T05:24:53;21.95;;;16.17;;
32633;SDS011;19043;51.012;5.648;2022-08-01T05:27:18;21.98;;;15.45;;
32633;SDS011;19043;51.012;5.648;2022-08-01T05:29:44;19.45;;;17.08;;
32633;SDS011;19043;51.012;5.648;2022-08-01T05:32:09;20.42;;;17.42;;
32633;SDS011;19043;51.012;5.648;2022-08-01T05:34:35;21.50;;;17.05;;
32633;SDS011;19043;51.012;5.648;2022-08-01T05:37:00;25.77;;;17.67;;
32633;SDS011;19043;51.012;5.648;2022-08-01T05:39:26;22.00;;;17.77;;
32633;SDS011;19043;51.012;5.648;2022-08-01T05:41:51;19.15;;;17.13;;
32633;SDS011;19043;51.012;5.648;2022-08-01T05:44:17;22.65;;;19.08;;
32633;SDS011;19043;51.012;5.648;2022-08-01T05:46:42;20.30;;;17.35;;
32633;SDS011;19043;51.012;5.648;2022-08-01T05:49:08;20.92;;;17.75;;
32633;SDS011;19043;51.012;5.648;2022-08-01T05:51:33;23.23;;;17.63;;
32633;SDS011;19043;51.012;5.648;2022-08-01T05:53:59;23.20;;;19.05;;
32633;SDS011;19043;51.012;5.648;2022-08-01T05:56:24;25.75;;;18.25;;
32633;SDS011;19043;51.012;5.648;2022-08-01T05:58:50;22.52;;;18.75;;
32633;SDS011;19043;51.012;5.648;2022-08-01T06:01:16;28.95;;;21.42;;
32633;SDS011;19043;51.012;5.648;2022-08-01T06:03:41;22.73;;;20.13;;
32633;SDS011;19043;51.012;5.648;2022-08-01T06:06:07;24.25;;;19.08;;
32633;SDS011;19043;51.012;5.648;2022-08-01T06:08:32;21.60;;;19.13;;
32633;SDS011;19043;51.012;5.648;2022-08-01T06:10:58;27.45;;;20.02;;
32633;SDS011;19043;51.012;5.648;2022-08-01T06:13:23;23.15;;;19.45;;
32633;SDS011;19043;51.012;5.648;2022-08-01T06:15:49;29.58;;;21.92;;
32633;SDS011;19043;51.012;5.648;2022-08-01T06:18:14;24.67;;;21.77;;
32633;SDS011;19043;51.012;5.648;2022-08-01T06:20:40;25.50;;;20.83;;
32633;SDS011;19043;51.012;5.648;2022-08-01T06:23:06;24.70;;;21.33;;
32633;SDS011;19043;51.012;5.648;2022-08-01T06:25:31;29.73;;;21.88;;
32633;SDS011;19043;51.012;5.648;2022-08-01T06:27:57;29.65;;;20.58;;
32633;SDS011;19043;51.012;5.648;2022-08-01T06:30:22;25.92;;;22.42;;
32633;SDS011;19043;51.012;5.648;2022-08-01T06:32:48;38.58;;;24.67;;
32633;SDS011;19043;51.012;5.648;2022-08-01T06:35:14;35.08;;;24.52;;
32633;SDS011;19043;51.012;5.648;2022-08-01T06:37:40;35.08;;;26.67;;
32633;SDS011;19043;51.012;5.648;2022-08-01T06:40:07;31.58;;;21.92;;
32633;SDS011;19043;51.012;5.648;2022-08-01T06:42:34;23.10;;;20.20;;
32633;SDS011;19043;51.012;5.648;2022-08-01T06:45:06;30.17;;;22.73;;
32633;SDS011;19043;51.012;5.648;2022-08-01T06:47:33;29.90;;;22.67;;
32633;SDS011;19043;51.012;5.648;2022-08-01T06:49:58;27.38;;;22.67;;
32633;SDS011;19043;51.012;5.648;2022-08-01T06:52:24;29.60;;;23.48;;
32633;SDS011;19043;51.012;5.648;2022-08-01T06:54:49;25.70;;;22.85;;
32633;SDS011;19043;51.012;5.648;2022-08-01T06:57:15;25.88;;;23.13;;
32633;SDS011;19043;51.012;5.648;2022-08-01T06:59:40;25.17;;;22.58;;
32633;SDS011;19043;51.012;5.648;2022-08-01T07:02:06;25.25;;;22.13;;
32633;SDS011;19043;51.012;5.648;2022-08-01T07:04:32;30.05;;;22.88;;
32633;SDS011;19043;51.012;5.648;2022-08-01T07:06:58;28.60;;;24.08;;
32633;SDS011;19043;51.012;5.648;2022-08-01T07:09:23;31.65;;;24.27;;
32633;SDS011;19043;51.012;5.648;2022-08-01T07:11:49;29.90;;;23.40;;
32633;SDS011;19043;51.012;5.648;2022-08-01T07:14:15;26.58;;;23.77;;
32633;SDS011;19043;51.012;5.648;2022-08-01T07:16:41;29.13;;;25.05;;
32633;SDS011;19043;51.012;5.648;2022-08-01T07:19:06;32.15;;;25.42;;
32633;SDS011;19043;51.012;5.648;2022-08-01T07:21:32;32.28;;;27.83;;
32633;SDS011;19043;51.012;5.648;2022-08-01T07:23:58;31.00;;;27.55;;
32633;SDS011;19043;51.012;5.648;2022-08-01T07:26:23;28.85;;;25.92;;
32633;SDS011;19043;51.012;5.648;2022-08-01T07:28:49;26.10;;;22.90;;
32633;SDS011;19043;51.012;5.648;2022-08-01T07:31:14;23.30;;;20.92;;
32633;SDS011;19043;51.012;5.648;2022-08-01T07:33:40;23.25;;;18.38;;
32633;SDS011;19043;51.012;5.648;2022-08-01T07:36:05;24.73;;;19.33;;
32633;SDS011;19043;51.012;5.648;2022-08-01T07:38:30;18.58;;;16.45;;
32633;SDS011;19043;51.012;5.648;2022-08-01T07:40:56;17.65;;;15.95;;
32633;SDS011;19043;51.012;5.648;2022-08-01T07:43:21;19.85;;;17.83;;
32633;SDS011;19043;51.012;5.648;2022-08-01T07:45:47;17.38;;;15.45;;
32633;SDS011;19043;51.012;5.648;2022-08-01T07:48:12;18.65;;;15.43;;
32633;SDS011;19043;51.012;5.648;2022-08-01T07:50:37;19.42;;;16.60;;
32633;SDS011;19043;51.012;5.648;2022-08-01T07:53:03;17.50;;;15.57;;
32633;SDS011;19043;51.012;5.648;2022-08-01T07:55:29;17.20;;;15.43;;
32633;SDS011;19043;51.012;5.648;2022-08-01T07:57:54;19.70;;;14.23;;
32633;SDS011;19043;51.012;5.648;2022-08-01T08:00:20;17.58;;;15.77;;
32633;SDS011;19043;51.012;5.648;2022-08-01T08:02:45;24.10;;;15.45;;
32633;SDS011;19043;51.012;5.648;2022-08-01T08:05:11;16.80;;;14.50;;
32633;SDS011;19043;51.012;5.648;2022-08-01T08:07:37;19.98;;;14.48;;
32633;SDS011;19043;51.012;5.648;2022-08-01T08:10:03;23.70;;;14.82;;
32633;SDS011;19043;51.012;5.648;2022-08-01T08:12:29;16.02;;;14.32;;
32633;SDS011;19043;51.012;5.648;2022-08-01T08:14:54;16.85;;;14.35;;
32633;SDS011;19043;51.012;5.648;2022-08-01T08:17:20;12.75;;;11.45;;
32633;SDS011;19043;51.012;5.648;2022-08-01T08:19:45;13.00;;;11.70;;
32633;SDS011;19043;51.012;5.648;2022-08-01T08:22:11;13.48;;;12.05;;
32633;SDS011;19043;51.012;5.648;2022-08-01T08:24:36;15.50;;;12.77;;
32633;SDS011;19043;51.012;5.648;2022-08-01T08:27:02;15.52;;;12.80;;
32633;SDS011;19043;51.012;5.648;2022-08-01T08:29:28;14.85;;;11.55;;
32633;SDS011;19043;51.012;5.648;2022-08-01T08:31:57;14.65;;;13.18;;
32633;SDS011;19043;51.012;5.648;2022-08-01T08:34:23;14.38;;;12.07;;
32633;SDS011;19043;51.012;5.648;2022-08-01T08:36:49;11.23;;;10.05;;
32633;SDS011;19043;51.012;5.648;2022-08-01T08:39:15;12.00;;;10.65;;
32633;SDS011;19043;51.012;5.648;2022-08-01T08:41:41;15.77;;;14.00;;
32633;SDS011;19043;51.012;5.648;2022-08-01T08:44:08;13.88;;;11.45;;
32633;SDS011;19043;51.012;5.648;2022-08-01T08:46:34;11.63;;;9.75;;
32633;SDS011;19043;51.012;5.648;2022-08-01T08:49:06;10.75;;;9.15;;
32633;SDS011;19043;51.012;5.648;2022-08-01T08:51:31;10.55;;;8.43;;
32633;SDS011;19043;51.012;5.648;2022-08-01T08:53:59;13.43;;;10.18;;
32633;SDS011;19043;51.012;5.648;2022-08-01T08:56:25;12.32;;;10.38;;
32633;SDS011;19043;51.012;5.648;2022-08-01T08:58:54;13.48;;;9.07;;
32633;SDS011;19043;51.012;5.648;2022-08-01T09:01:20;18.65;;;10.15;;
32633;SDS011;19043;51.012;5.648;2022-08-01T09:03:45;12.55;;;10.07;;
32633;SDS011;19043;51.012;5.648;2022-08-01T09:06:12;17.15;;;10.27;;
32633;SDS011;19043;51.012;5.648;2022-08-01T09:08:39;11.05;;;9.35;;
32633;SDS011;19043;51.012;5.648;2022-08-01T09:11:04;8.40;;;7.57;;
32633;SDS011;19043;51.012;5.648;2022-08-01T09:13:29;9.32;;;8.32;;
32633;SDS011;19043;51.012;5.648;2022-08-01T09:15:55;12.40;;;8.30;;
32633;SDS011;19043;51.012;5.648;2022-08-01T09:18:33;8.68;;;7.65;;
32633;SDS011;19043;51.012;5.648;2022-08-01T09:23:38;7.80;;;6.57;;
32633;SDS011;19043;51.012;5.648;2022-08-01T09:26:07;9.45;;;7.88;;
32633;SDS011;19043;51.012;5.648;2022-08-01T09:28:54;8.02;;;6.85;;
32633;SDS011;19043;51.012;5.648;2022-08-01T09:31:19;6.78;;;6.07;;
32633;SDS011;19043;51.012;5.648;2022-08-01T09:33:52;7.78;;;6.13;;
32633;SDS011;19043;51.012;5.648;2022-08-01T09:36:20;7.43;;;5.82;;
32633;SDS011;19043;51.012;5.648;2022-08-01T09:38:47;6.97;;;5.90;;
32633;SDS011;19043;51.012;5.648;2022-08-01T09:41:13;8.80;;;5.60;;
32633;SDS011;19043;51.012;5.648;2022-08-01T09:43:38;10.52;;;5.38;;
32633;SDS011;19043;51.012;5.648;2022-08-01T09:46:05;12.85;;;6.13;;
32633;SDS011;19043;51.012;5.648;2022-08-01T09:48:35;6.97;;;5.57;;
32633;SDS011;19043;51.012;5.648;2022-08-01T09:51:02;6.30;;;5.50;;
32633;SDS011;19043;51.012;5.648;2022-08-01T09:53:27;5.35;;;4.53;;
32633;SDS011;19043;51.012;5.648;2022-08-01T09:56:09;6.20;;;5.22;;
32633;SDS011;19043;51.012;5.648;2022-08-01T09:58:48;6.10;;;5.38;;
32633;SDS011;19043;51.012;5.648;2022-08-01T10:01:14;6.70;;;5.00;;
32633;SDS011;19043;51.012;5.648;2022-08-01T10:03:39;6.80;;;5.00;;
32633;SDS011;19043;51.012;5.648;2022-08-01T10:06:20;7.63;;;5.25;;
32633;SDS011;19043;51.012;5.648;2022-08-01T10:08:46;6.45;;;4.70;;
32633;SDS011;19043;51.012;5.648;2022-08-01T10:11:12;6.65;;;5.57;;
32633;SDS011;19043;51.012;5.648;2022-08-01T10:13:38;6.30;;;4.88;;
32633;SDS011;19043;51.012;5.648;2022-08-01T10:16:05;5.25;;;4.75;;
32633;SDS011;19043;51.012;5.648;2022-08-01T10:18:31;6.50;;;4.68;;
32633;SDS011;19043;51.012;5.648;2022-08-01T10:21:01;7.70;;;5.45;;
32633;SDS011;19043;51.012;5.648;2022-08-01T10:23:27;5.68;;;5.05;;
32633;SDS011;19043;51.012;5.648;2022-08-01T10:25:57;6.75;;;5.22;;
32633;SDS011;19043;51.012;5.648;2022-08-01T10:28:26;7.50;;;5.85;;
32633;SDS011;19043;51.012;5.648;2022-08-01T10:30:55;6.55;;;5.15;;
32633;SDS011;19043;51.012;5.648;2022-08-01T10:33:22;6.97;;;4.53;;
32633;SDS011;19043;51.012;5.648;2022-08-01T10:35:48;6.03;;;4.07;;
32633;SDS011;19043;51.012;5.648;2022-08-01T10:38:15;4.95;;;4.45;;
32633;SDS011;19043;51.012;5.648;2022-08-01T10:40:42;5.50;;;4.35;;
32633;SDS011;19043;51.012;5.648;2022-08-01T10:43:09;6.85;;;4.38;;
32633;SDS011;19043;51.012;5.648;2022-08-01T10:45:35;6.03;;;4.30;;
32633;SDS011;19043;51.012;5.648;2022-08-01T10:51:01;4.03;;;3.30;;
32633;SDS011;19043;51.012;5.648;2022-08-01T10:53:28;3.60;;;2.85;;
32633;SDS011;19043;51.012;5.648;2022-08-01T11:01:24;4.50;;;3.28;;
32633;SDS011;19043;51.012;5.648;2022-08-01T11:03:58;4.50;;;2.70;;
32633;SDS011;19043;51.012;5.648;2022-08-01T11:09:03;4.68;;;3.08;;
32633;SDS011;19043;51.012;5.648;2022-08-01T11:11:30;4.07;;;3.00;;
32633;SDS011;19043;51.012;5.648;2022-08-01T11:16:37;6.07;;;2.83;;
32633;SDS011;19043;51.012;5.648;2022-08-01T11:19:04;5.25;;;2.80;;
32633;SDS011;19043;51.012;5.648;2022-08-01T11:27:24;3.80;;;2.17;;
32633;SDS011;19043;51.012;5.648;2022-08-01T11:32:46;3.08;;;1.75;;
32633;SDS011;19043;51.012;5.648;2022-08-01T11:35:11;2.70;;;1.73;;
32633;SDS011;19043;51.012;5.648;2022-08-01T11:37:37;6.30;;;1.98;;
32633;SDS011;19043;51.012;5.648;2022-08-01T11:40:18;4.03;;;2.30;;
32633;SDS011;19043;51.012;5.648;2022-08-01T11:42:45;3.15;;;1.65;;
32633;SDS011;19043;51.012;5.648;2022-08-01T11:45:11;4.30;;;2.03;;
32633;SDS011;19043;51.012;5.648;2022-08-01T11:47:42;2.55;;;1.80;;
32633;SDS011;19043;51.012;5.648;2022-08-01T11:50:33;3.03;;;2.03;;
32633;SDS011;19043;51.012;5.648;2022-08-01T11:53:04;3.85;;;1.90;;
32633;SDS011;19043;51.012;5.648;2022-08-01T11:55:33;3.83;;;2.23;;
32633;SDS011;19043;51.012;5.648;2022-08-01T11:58:02;2.90;;;1.83;;
32633;SDS011;19043;51.012;5.648;2022-08-01T12:00:31;4.03;;;1.90;;
32633;SDS011;19043;51.012;5.648;2022-08-01T12:03:02;4.45;;;2.08;;
32633;SDS011;19043;51.012;5.648;2022-08-01T12:05:29;4.13;;;1.83;;
32633;SDS011;19043;51.012;5.648;2022-08-01T12:07:56;4.55;;;1.40;;
32633;SDS011;19043;51.012;5.648;2022-08-01T12:10:24;3.70;;;1.58;;
32633;SDS011;19043;51.012;5.648;2022-08-01T12:13:00;3.17;;;1.70;;
32633;SDS011;19043;51.012;5.648;2022-08-01T12:15:30;3.35;;;1.80;;
32633;SDS011;19043;51.012;5.648;2022-08-01T12:17:58;2.85;;;1.60;;
32633;SDS011;19043;51.012;5.648;2022-08-01T12:20:35;2.75;;;1.52;;
32633;SDS011;19043;51.012;5.648;2022-08-01T12:23:03;3.38;;;1.70;;
32633;SDS011;19043;51.012;5.648;2022-08-01T12:25:32;2.63;;;1.77;;
32633;SDS011;19043;51.012;5.648;2022-08-01T12:28:03;2.83;;;1.70;;
32633;SDS011;19043;51.012;5.648;2022-08-01T12:30:29;4.63;;;1.25;;
32633;SDS011;19043;51.012;5.648;2022-08-01T12:33:00;2.42;;;1.58;;
32633;SDS011;19043;51.012;5.648;2022-08-01T12:35:27;2.72;;;1.60;;
32633;SDS011;19043;51.012;5.648;2022-08-01T12:37:58;3.55;;;1.63;;
32633;SDS011;19043;51.012;5.648;2022-08-01T12:40:27;3.05;;;1.80;;
32633;SDS011;19043;51.012;5.648;2022-08-01T12:42:54;3.03;;;1.90;;
32633;SDS011;19043;51.012;5.648;2022-08-01T12:45:21;3.05;;;1.60;;
32633;SDS011;19043;51.012;5.648;2022-08-01T12:47:57;3.45;;;1.60;;
32633;SDS011;19043;51.012;5.648;2022-08-01T12:50:25;2.58;;;1.73;;
32633;SDS011;19043;51.012;5.648;2022-08-01T12:52:53;6.07;;;1.90;;
32633;SDS011;19043;51.012;5.648;2022-08-01T12:57:46;2.78;;;1.83;;
32633;SDS011;19043;51.012;5.648;2022-08-01T13:02:42;3.95;;;2.35;;
32633;SDS011;19043;51.012;5.648;2022-08-01T13:05:09;3.30;;;2.38;;
32633;SDS011;19043;51.012;5.648;2022-08-01T13:07:35;3.17;;;2.33;;
32633;SDS011;19043;51.012;5.648;2022-08-01T13:10:01;4.95;;;2.00;;
32633;SDS011;19043;51.012;5.648;2022-08-01T13:12:27;3.55;;;2.22;;
32633;SDS011;19043;51.012;5.648;2022-08-01T13:14:52;3.47;;;2.42;;
32633;SDS011;19043;51.012;5.648;2022-08-01T13:17:33;4.28;;;2.38;;
32633;SDS011;19043;51.012;5.648;2022-08-01T13:20:02;4.57;;;2.35;;
32633;SDS011;19043;51.012;5.648;2022-08-01T13:22:31;3.08;;;1.98;;
32633;SDS011;19043;51.012;5.648;2022-08-01T13:25:13;8.57;;;2.38;;
32633;SDS011;19043;51.012;5.648;2022-08-01T13:27:40;2.95;;;1.85;;
32633;SDS011;19043;51.012;5.648;2022-08-01T13:30:12;4.13;;;1.85;;
32633;SDS011;19043;51.012;5.648;2022-08-01T13:32:42;3.90;;;2.03;;
32633;SDS011;19043;51.012;5.648;2022-08-01T13:35:10;3.50;;;1.73;;
32633;SDS011;19043;51.012;5.648;2022-08-01T13:37:38;3.13;;;2.10;;
32633;SDS011;19043;51.012;5.648;2022-08-01T13:40:05;3.47;;;2.00;;
32633;SDS011;19043;51.012;5.648;2022-08-01T13:42:31;4.03;;;1.73;;
32633;SDS011;19043;51.012;5.648;2022-08-01T13:44:57;3.28;;;1.67;;
32633;SDS011;19043;51.012;5.648;2022-08-01T13:47:22;3.10;;;1.58;;
32633;SDS011;19043;51.012;5.648;2022-08-01T13:49:48;3.28;;;1.77;;
32633;SDS011;19043;51.012;5.648;2022-08-01T13:52:13;3.40;;;1.88;;
32633;SDS011;19043;51.012;5.648;2022-08-01T13:54:38;4.28;;;1.92;;
32633;SDS011;19043;51.012;5.648;2022-08-01T13:57:04;3.70;;;2.10;;
32633;SDS011;19043;51.012;5.648;2022-08-01T13:59:29;5.28;;;2.00;;
32633;SDS011;19043;51.012;5.648;2022-08-01T14:01:55;4.20;;;1.48;;
32633;SDS011;19043;51.012;5.648;2022-08-01T14:04:20;3.40;;;1.52;;
32633;SDS011;19043;51.012;5.648;2022-08-01T14:06:46;4.03;;;1.85;;
32633;SDS011;19043;51.012;5.648;2022-08-01T14:09:12;4.05;;;1.90;;
32633;SDS011;19043;51.012;5.648;2022-08-01T14:11:37;4.15;;;2.20;;
32633;SDS011;19043;51.012;5.648;2022-08-01T14:14:03;2.92;;;1.20;;
32633;SDS011;19043;51.012;5.648;2022-08-01T14:16:29;3.85;;;1.98;;
32633;SDS011;19043;51.012;5.648;2022-08-01T14:18:54;3.35;;;1.80;;
32633;SDS011;19043;51.012;5.648;2022-08-01T14:21:20;3.63;;;1.58;;
32633;SDS011;19043;51.012;5.648;2022-08-01T14:23:45;4.30;;;1.73;;
32633;SDS011;19043;51.012;5.648;2022-08-01T14:26:11;4.65;;;1.95;;
32633;SDS011;19043;51.012;5.648;2022-08-01T14:28:36;3.83;;;1.63;;
32633;SDS011;19043;51.012;5.648;2022-08-01T14:31:02;3.55;;;2.22;;
32633;SDS011;19043;51.012;5.648;2022-08-01T14:33:28;2.88;;;1.52;;
32633;SDS011;19043;51.012;5.648;2022-08-01T14:35:54;3.30;;;1.35;;
32633;SDS011;19043;51.012;5.648;2022-08-01T14:38:19;3.85;;;1.77;;
32633;SDS011;19043;51.012;5.648;2022-08-01T14:40:45;3.75;;;1.60;;
32633;SDS011;19043;51.012;5.648;2022-08-01T14:43:16;5.65;;;2.08;;
32633;SDS011;19043;51.012;5.648;2022-08-01T14:45:42;3.78;;;2.00;;
32633;SDS011;19043;51.012;5.648;2022-08-01T14:48:08;2.75;;;1.55;;
32633;SDS011;19043;51.012;5.648;2022-08-01T14:50:33;2.67;;;1.60;;
32633;SDS011;19043;51.012;5.648;2022-08-01T14:52:59;2.50;;;1.13;;
32633;SDS011;19043;51.012;5.648;2022-08-01T14:55:24;2.67;;;1.35;;
32633;SDS011;19043;51.012;5.648;2022-08-01T14:57:51;4.50;;;1.42;;
32633;SDS011;19043;51.012;5.648;2022-08-01T15:00:17;2.83;;;1.33;;
32633;SDS011;19043;51.012;5.648;2022-08-01T15:02:43;2.92;;;1.27;;
32633;SDS011;19043;51.012;5.648;2022-08-01T15:05:08;6.57;;;1.77;;
32633;SDS011;19043;51.012;5.648;2022-08-01T15:07:35;3.17;;;1.67;;
32633;SDS011;19043;51.012;5.648;2022-08-01T15:10:01;4.15;;;1.85;;
32633;SDS011;19043;51.012;5.648;2022-08-01T15:12:27;4.70;;;1.50;;
32633;SDS011;19043;51.012;5.648;2022-08-01T15:14:52;7.57;;;1.85;;
32633;SDS011;19043;51.012;5.648;2022-08-01T15:19:47;3.40;;;1.70;;
32633;SDS011;19043;51.012;5.648;2022-08-01T15:22:14;3.30;;;1.17;;
32633;SDS011;19043;51.012;5.648;2022-08-01T15:24:40;3.38;;;1.92;;